createdAt,value
2023-01-31T00:01:17.893Z,15.87
2023-01-31T00:04:21.918Z,17.07
2023-01-31T00:07:24.566Z,12.60
2023-01-31T00:10:27.244Z,23.43
2023-01-31T00:13:29.857Z,18.07
2023-01-31T00:16:33.215Z,16.37
2023-01-31T00:19:37.341Z,16.30
2023-01-31T00:22:40.234Z,13.83
2023-01-31T00:25:42.928Z,21.47
2023-01-31T00:28:47.102Z,18.10
2023-01-31T00:31:49.894Z,16.37
2023-01-31T00:34:54.614Z,15.80
2023-01-31T00:37:57.316Z,18.73
2023-01-31T00:41:00.234Z,16.20
2023-01-31T00:44:04.125Z,11.13
2023-01-31T00:47:06.846Z,16.57
2023-01-31T00:50:15.924Z,16.27
2023-01-31T00:53:23.357Z,17.77
2023-01-31T00:56:26.775Z,18.13
2023-01-31T00:59:29.460Z,26.33
2023-01-31T01:02:32.193Z,18.43
2023-01-31T01:05:37.385Z,13.60
2023-01-31T01:08:41.757Z,19.57
2023-01-31T01:11:44.564Z,13.83
2023-01-31T01:14:47.938Z,16.67
2023-01-31T01:17:51.135Z,19.33
2023-01-31T01:20:55.186Z,19.13
2023-01-31T01:24:00.555Z,15.47
2023-01-31T01:27:05.102Z,16.23
2023-01-31T01:30:09.444Z,15.07
2023-01-31T01:33:12.144Z,17.60
2023-01-31T01:36:22.268Z,16.63
2023-01-31T01:39:26.017Z,17.27
2023-01-31T01:42:34.574Z,17.80
2023-01-31T01:45:37.314Z,19.40
2023-01-31T01:48:40.264Z,17.90
2023-01-31T01:51:46.090Z,14.33
2023-01-31T01:54:51.977Z,15.70
2023-01-31T01:58:01.999Z,14.67
2023-01-31T02:01:06.912Z,15.90
2023-01-31T02:04:23.576Z,12.43
2023-01-31T02:07:28.009Z,22.40
2023-01-31T02:10:34.427Z,17.27
2023-01-31T02:13:39.471Z,14.83
2023-01-31T02:16:42.384Z,15.53
2023-01-31T02:19:59.144Z,21.40
2023-01-31T02:23:31.340Z,14.50
2023-01-31T02:27:05.124Z,17.20
2023-01-31T02:30:32.037Z,19.80
2023-01-31T02:33:43.208Z,13.53
2023-01-31T02:36:59.549Z,16.53
2023-01-31T02:40:14.683Z,16.63
2023-01-31T02:43:25.304Z,12.10
2023-01-31T02:46:35.375Z,18.97
2023-01-31T02:49:45.641Z,19.30
2023-01-31T02:52:52.478Z,19.67
2023-01-31T02:56:18.858Z,16.87
2023-01-31T02:59:27.010Z,21.47
2023-01-31T03:02:30.363Z,17.27
2023-01-31T03:05:34.497Z,20.40
2023-01-31T03:08:38.321Z,17.17
2023-01-31T03:11:49.296Z,15.17
2023-01-31T03:15:02.673Z,21.23
2023-01-31T03:18:10.336Z,18.47
2023-01-31T03:21:18.808Z,19.30
2023-01-31T03:24:26.156Z,14.73
2023-01-31T03:27:29.611Z,18.60
2023-01-31T03:30:37.069Z,20.43
2023-01-31T03:33:43.329Z,10.73
2023-01-31T03:36:55.143Z,17.43
2023-01-31T03:40:04.547Z,22.33
2023-01-31T03:43:13.806Z,18.27
2023-01-31T03:46:22.634Z,12.40
2023-01-31T03:49:28.558Z,11.13
2023-01-31T03:52:37.737Z,12.43
2023-01-31T03:55:44.620Z,13.60
2023-01-31T03:58:50.875Z,13.80
2023-01-31T04:01:58.695Z,12.57
2023-01-31T04:05:07.122Z,14.27
2023-01-31T04:08:12.088Z,18.37
2023-01-31T04:11:16.335Z,13.97
2023-01-31T04:14:19.432Z,13.47
2023-01-31T04:17:22.190Z,13.87
2023-01-31T04:20:24.941Z,15.20
2023-01-31T04:23:29.075Z,14.53
2023-01-31T04:26:32.210Z,17.80
2023-01-31T04:29:34.980Z,14.33
2023-01-31T04:32:37.726Z,17.40
2023-01-31T04:35:40.955Z,15.67
2023-01-31T04:38:44.997Z,11.67
2023-01-31T04:41:47.667Z,15.20
2023-01-31T04:44:50.409Z,14.17
2023-01-31T04:47:53.174Z,12.47
2023-01-31T04:50:55.845Z,14.97
2023-01-31T04:53:59.893Z,12.17
2023-01-31T04:57:03.375Z,14.20
2023-01-31T05:00:07.592Z,16.27
2023-01-31T05:03:10.242Z,19.00
2023-01-31T05:06:13.183Z,16.10
2023-01-31T05:09:18.018Z,18.13
2023-01-31T05:12:21.261Z,19.00
2023-01-31T05:15:23.948Z,17.27
2023-01-31T05:18:26.960Z,13.60
2023-01-31T05:21:29.616Z,19.87
2023-01-31T05:24:34.368Z,14.00
2023-01-31T05:27:37.009Z,20.90
2023-01-31T05:30:39.815Z,15.27
2023-01-31T05:33:43.082Z,20.50
2023-01-31T05:36:45.747Z,8.97
2023-01-31T05:39:49.751Z,16.13
2023-01-31T05:42:56.013Z,13.27
2023-01-31T05:45:58.767Z,11.03
2023-01-31T05:49:02.113Z,12.57
2023-01-31T05:52:04.926Z,16.63
2023-01-31T05:55:09.872Z,21.77
2023-01-31T05:58:12.583Z,14.30
2023-01-31T06:01:15.420Z,12.73
2023-01-31T06:04:18.113Z,15.90
2023-01-31T06:07:21.602Z,12.97
2023-01-31T06:10:25.791Z,13.33
2023-01-31T06:13:28.456Z,14.47
2023-01-31T06:16:31.275Z,10.90
2023-01-31T06:19:34.244Z,14.97
2023-01-31T06:22:37.002Z,13.40
2023-01-31T06:25:41.153Z,16.23
2023-01-31T06:28:46.041Z,11.73
2023-01-31T06:31:49.093Z,18.20
2023-01-31T06:34:51.891Z,17.97
2023-01-31T06:37:55.969Z,17.10
2023-01-31T06:41:00.147Z,14.97
2023-01-31T06:44:02.897Z,15.90
2023-01-31T06:47:05.813Z,15.40
2023-01-31T06:50:09.232Z,15.03
2023-01-31T06:53:11.937Z,13.67
2023-01-31T06:56:15.983Z,12.03
2023-01-31T06:59:18.624Z,13.53
2023-01-31T07:02:21.862Z,14.00
2023-01-31T07:05:24.871Z,8.57
2023-01-31T07:08:27.565Z,13.63
2023-01-31T07:11:31.645Z,18.43
2023-01-31T07:14:34.324Z,12.43
2023-01-31T07:17:37.031Z,11.27
2023-01-31T07:20:40.735Z,18.50
2023-01-31T07:23:43.470Z,14.43
2023-01-31T07:26:47.570Z,22.30
2023-01-31T07:29:50.435Z,12.57
2023-01-31T07:32:53.209Z,17.03
2023-01-31T07:35:55.857Z,12.67
2023-01-31T07:39:00.069Z,14.60
2023-01-31T07:42:04.110Z,13.80
2023-01-31T07:45:22.418Z,16.17
2023-01-31T07:48:26.231Z,13.07
2023-01-31T07:51:28.910Z,14.57
2023-01-31T07:54:31.973Z,14.33
2023-01-31T07:57:36.340Z,13.87
2023-01-31T08:00:56.733Z,21.30
2023-01-31T08:04:10.701Z,15.50
2023-01-31T08:07:21.225Z,19.97
2023-01-31T08:10:23.877Z,16.37
2023-01-31T08:13:27.948Z,11.50
2023-01-31T08:16:32.026Z,14.00
2023-01-31T08:19:35.328Z,10.97
2023-01-31T08:22:38.231Z,16.93
2023-01-31T08:25:41.009Z,13.73
2023-01-31T08:28:46.366Z,17.70
2023-01-31T08:31:51.155Z,10.77
2023-01-31T08:34:54.824Z,11.87
2023-01-31T08:38:10.322Z,17.37
2023-01-31T08:41:20.026Z,13.53
2023-01-31T08:44:24.091Z,9.23
2023-01-31T08:47:26.878Z,13.70
2023-01-31T08:50:32.740Z,11.00
2023-01-31T08:53:36.539Z,13.20
2023-01-31T08:56:39.204Z,14.50
2023-01-31T08:59:43.322Z,14.70
2023-01-31T09:02:47.443Z,13.43
2023-01-31T09:05:50.156Z,10.33
2023-01-31T09:08:52.846Z,16.73
2023-01-31T09:11:55.550Z,14.50
2023-01-31T09:14:59.539Z,13.47
2023-01-31T09:18:02.263Z,15.97
2023-01-31T09:21:06.097Z,12.23
2023-01-31T09:24:11.947Z,17.27
2023-01-31T09:27:14.646Z,11.90
2023-01-31T09:30:19.341Z,10.90
2023-01-31T09:33:22.747Z,11.23
2023-01-31T09:36:25.886Z,11.50
2023-01-31T09:39:28.593Z,13.13
2023-01-31T09:42:36.148Z,11.97
2023-01-31T09:45:44.033Z,12.97
2023-01-31T09:48:52.038Z,11.70
2023-01-31T09:51:59.598Z,12.40
2023-01-31T09:55:03.226Z,18.37
2023-01-31T09:58:15.246Z,19.87
2023-01-31T10:01:25.748Z,13.30
2023-01-31T10:04:44.033Z,15.50
2023-01-31T10:07:54.725Z,14.47
2023-01-31T10:11:02.160Z,14.53
2023-01-31T10:14:18.782Z,14.33
2023-01-31T10:17:28.021Z,17.33
2023-01-31T10:20:37.225Z,13.77
2023-01-31T10:23:45.576Z,19.27
2023-01-31T10:26:52.844Z,17.87
2023-01-31T10:29:58.951Z,15.63
2023-01-31T10:33:18.341Z,19.40
2023-01-31T10:36:29.453Z,15.27
2023-01-31T10:39:35.243Z,16.23
2023-01-31T10:42:40.566Z,17.73
2023-01-31T10:45:43.375Z,14.77
2023-01-31T10:48:49.323Z,16.07
2023-01-31T10:52:08.762Z,17.00
2023-01-31T10:55:30.959Z,13.07
2023-01-31T10:58:35.271Z,14.97
2023-01-31T11:01:38.520Z,14.60
2023-01-31T11:04:43.903Z,15.30
2023-01-31T11:07:47.430Z,19.23
2023-01-31T11:10:52.775Z,16.53
2023-01-31T11:13:58.325Z,16.90
2023-01-31T11:17:06.295Z,20.07
2023-01-31T11:20:22.513Z,18.63
2023-01-31T11:23:27.688Z,18.43
2023-01-31T11:26:33.259Z,20.57
2023-01-31T11:29:39.167Z,17.93
2023-01-31T11:32:44.701Z,17.13
2023-01-31T11:35:53.145Z,21.10
2023-01-31T11:38:55.919Z,18.23
2023-01-31T11:41:59.489Z,18.07
2023-01-31T11:45:03.683Z,22.73
2023-01-31T11:48:12.046Z,15.70
2023-01-31T11:51:27.797Z,23.73
2023-01-31T11:54:33.241Z,17.07
2023-01-31T11:57:37.562Z,12.57
2023-01-31T12:00:53.650Z,18.50
2023-01-31T12:04:03.693Z,14.67
2023-01-31T12:07:23.394Z,16.57
2023-01-31T12:10:34.589Z,18.13
2023-01-31T12:13:48.083Z,16.73
2023-01-31T12:16:51.818Z,18.03
2023-01-31T12:20:27.541Z,21.50
2023-01-31T12:23:40.715Z,17.80
2023-01-31T12:26:48.873Z,14.23
2023-01-31T12:30:17.045Z,17.83
2023-01-31T12:33:36.537Z,20.60
2023-01-31T12:36:54.476Z,13.17
2023-01-31T12:40:25.665Z,15.43
2023-01-31T12:43:54.937Z,20.33
2023-01-31T12:47:18.294Z,15.70
2023-01-31T12:50:38.921Z,18.10
2023-01-31T12:53:55.095Z,16.83
2023-01-31T12:57:12.944Z,15.90
2023-01-31T13:00:28.079Z,12.93
2023-01-31T13:03:50.039Z,16.57
2023-01-31T13:06:58.033Z,20.63
2023-01-31T13:10:03.147Z,17.97
2023-01-31T13:13:17.149Z,18.37
2023-01-31T13:16:22.879Z,17.53
2023-01-31T13:19:30.803Z,20.97
2023-01-31T13:22:41.759Z,17.90
2023-01-31T13:25:50.796Z,13.17
2023-01-31T13:29:00.641Z,17.43
2023-01-31T13:32:06.126Z,15.97
2023-01-31T13:35:17.872Z,13.80
2023-01-31T13:38:22.104Z,11.63
2023-01-31T13:41:29.326Z,12.20
2023-01-31T13:44:33.649Z,16.07
2023-01-31T13:47:46.125Z,13.53
2023-01-31T13:50:54.314Z,10.30
2023-01-31T13:54:00.527Z,13.57
2023-01-31T13:57:04.780Z,14.27
2023-01-31T14:00:25.721Z,14.83
2023-01-31T14:03:28.529Z,12.43
2023-01-31T14:06:55.436Z,14.57
2023-01-31T14:10:37.893Z,14.43
2023-01-31T14:13:44.351Z,10.00
2023-01-31T14:16:51.717Z,14.20
2023-01-31T14:20:06.903Z,12.73
2023-01-31T14:23:45.409Z,12.67
2023-01-31T14:26:55.756Z,11.07
2023-01-31T14:30:10.395Z,13.93
2023-01-31T14:33:24.355Z,12.40
2023-01-31T14:36:43.696Z,9.47
2023-01-31T14:40:11.492Z,10.53
2023-01-31T14:43:31.662Z,10.60
2023-01-31T14:46:46.039Z,14.53
2023-01-31T14:50:08.482Z,10.97
2023-01-31T14:53:39.809Z,13.87
2023-01-31T14:56:54.999Z,14.87
2023-01-31T15:00:01.978Z,13.13
2023-01-31T15:03:09.042Z,11.60
2023-01-31T15:06:16.607Z,11.80
2023-01-31T15:09:38.512Z,10.43
2023-01-31T15:12:55.696Z,14.17
2023-01-31T15:15:59.029Z,12.27
2023-01-31T15:19:08.555Z,15.67
2023-01-31T15:22:13.511Z,10.67
2023-01-31T15:25:27.609Z,9.23
2023-01-31T15:28:34.858Z,14.53
2023-01-31T15:31:42.206Z,13.27
2023-01-31T15:34:54.464Z,14.50
2023-01-31T15:38:03.796Z,8.77
2023-01-31T15:41:18.319Z,9.00
2023-01-31T15:44:23.527Z,11.50
2023-01-31T15:47:26.375Z,10.83
2023-01-31T15:50:31.302Z,9.20
2023-01-31T15:53:35.326Z,8.30
2023-01-31T15:56:41.496Z,11.77
2023-01-31T15:59:48.051Z,9.17
2023-01-31T16:03:00.086Z,12.17
2023-01-31T16:06:04.779Z,7.57
2023-01-31T16:09:25.186Z,8.73
2023-01-31T16:12:29.033Z,7.50
2023-01-31T16:15:33.089Z,7.40
2023-01-31T16:18:37.787Z,8.43
2023-01-31T16:21:42.695Z,7.70
2023-01-31T16:24:55.621Z,4.27
2023-01-31T16:28:02.332Z,6.03
2023-01-31T16:31:07.748Z,7.90
2023-01-31T16:34:23.601Z,5.70
2023-01-31T16:37:33.215Z,6.90
2023-01-31T16:40:45.873Z,7.10
2023-01-31T16:43:52.543Z,4.67
2023-01-31T16:46:55.481Z,5.17
2023-01-31T16:50:41.963Z,15.40
2023-01-31T16:53:45.859Z,6.83
2023-01-31T16:57:07.200Z,7.23
2023-01-31T17:00:36.159Z,6.17
2023-01-31T17:03:39.842Z,6.03
2023-01-31T17:06:43.200Z,5.60
2023-01-31T17:09:47.575Z,5.50
2023-01-31T17:12:52.338Z,6.70
2023-01-31T17:15:55.054Z,3.63
2023-01-31T17:18:57.732Z,9.33
2023-01-31T17:22:00.387Z,6.77
2023-01-31T17:25:03.315Z,6.73
2023-01-31T17:28:08.160Z,10.43
2023-01-31T17:31:18.882Z,3.97
2023-01-31T17:34:21.580Z,5.47
2023-01-31T17:37:31.596Z,6.50
2023-01-31T17:40:35.269Z,7.10
2023-01-31T17:43:39.582Z,6.30
2023-01-31T17:46:43.094Z,4.93
2023-01-31T17:49:45.891Z,11.33
2023-01-31T17:52:48.798Z,6.13
2023-01-31T17:55:51.797Z,5.80
2023-01-31T17:58:55.890Z,5.63
2023-01-31T18:02:00.566Z,3.87
2023-01-31T18:05:04.732Z,4.40
2023-01-31T18:08:07.440Z,3.83
2023-01-31T18:11:12.144Z,5.57
2023-01-31T18:14:16.248Z,4.10
2023-01-31T18:17:20.183Z,4.70
2023-01-31T18:20:22.961Z,6.83
2023-01-31T18:23:25.775Z,4.83
2023-01-31T18:26:29.384Z,9.03
2023-01-31T18:29:33.517Z,6.03
2023-01-31T18:32:36.486Z,6.40
2023-01-31T18:35:39.166Z,6.13
2023-01-31T18:38:43.634Z,3.63
2023-01-31T18:41:46.468Z,4.20
2023-01-31T18:44:50.465Z,3.27
2023-01-31T18:47:53.254Z,6.03
2023-01-31T18:50:56.241Z,3.90
2023-01-31T18:53:59.066Z,4.47
2023-01-31T18:57:02.237Z,4.03
2023-01-31T19:00:07.336Z,4.97
2023-01-31T19:03:10.282Z,5.73
2023-01-31T19:06:14.960Z,3.13
2023-01-31T19:09:18.457Z,4.20
2023-01-31T19:12:21.389Z,3.07
2023-01-31T19:15:27.255Z,3.80
2023-01-31T19:18:30.310Z,3.07
2023-01-31T19:21:34.823Z,3.93
2023-01-31T19:24:37.525Z,4.03
2023-01-31T19:27:41.397Z,3.10
2023-01-31T19:30:45.482Z,4.30
2023-01-31T19:33:50.103Z,3.70
2023-01-31T19:36:52.866Z,3.30
2023-01-31T19:39:55.715Z,3.63
2023-01-31T19:42:58.834Z,3.67
2023-01-31T19:46:03.356Z,4.60
2023-01-31T19:49:06.771Z,4.53
2023-01-31T19:52:09.640Z,5.63
2023-01-31T19:55:12.563Z,5.90
2023-01-31T19:58:15.341Z,4.67
2023-01-31T20:01:19.911Z,4.53
2023-01-31T20:04:22.840Z,5.23
2023-01-31T20:07:26.954Z,3.80
2023-01-31T20:10:31.130Z,3.47
2023-01-31T20:13:33.911Z,5.23
2023-01-31T20:16:38.019Z,3.23
2023-01-31T20:19:41.088Z,7.77
2023-01-31T20:22:43.912Z,5.40
2023-01-31T20:25:49.014Z,3.63
2023-01-31T20:28:51.769Z,5.60
2023-01-31T20:31:55.942Z,4.20
2023-01-31T20:35:00.347Z,3.97
2023-01-31T20:38:03.084Z,3.83
2023-01-31T20:41:07.193Z,3.43
2023-01-31T20:44:10.126Z,3.60
2023-01-31T20:47:14.337Z,3.97
2023-01-31T20:50:17.687Z,3.50
2023-01-31T20:53:21.202Z,4.93
2023-01-31T20:56:23.855Z,4.93
2023-01-31T20:59:26.784Z,5.03
2023-01-31T21:02:31.030Z,4.13
2023-01-31T21:05:38.541Z,6.00
2023-01-31T21:08:41.885Z,5.93
2023-01-31T21:11:45.116Z,6.07
2023-01-31T21:14:48.495Z,3.73
2023-01-31T21:17:53.074Z,5.03
2023-01-31T21:20:56.336Z,3.70
2023-01-31T21:24:00.119Z,3.63
2023-01-31T21:27:04.264Z,3.97
2023-01-31T21:30:09.330Z,4.27
2023-01-31T21:33:15.195Z,3.77
2023-01-31T21:36:20.938Z,4.27
2023-01-31T21:39:24.091Z,4.03
2023-01-31T21:42:27.126Z,3.87
2023-01-31T21:45:42.648Z,4.07
2023-01-31T21:48:47.369Z,3.40
2023-01-31T21:51:50.736Z,3.83
2023-01-31T21:54:53.823Z,4.27
2023-01-31T21:57:56.938Z,3.13
2023-01-31T22:01:05.116Z,4.23
2023-01-31T22:04:09.800Z,5.57
2023-01-31T22:07:12.928Z,4.47
2023-01-31T22:10:16.172Z,4.60
2023-01-31T22:13:19.306Z,4.57
2023-01-31T22:16:25.552Z,5.47
2023-01-31T22:19:30.253Z,3.37
2023-01-31T22:22:33.448Z,2.80
2023-01-31T22:25:37.719Z,7.07
2023-01-31T22:28:41.666Z,4.00
2023-01-31T22:31:45.440Z,7.10
2023-01-31T22:34:49.997Z,6.00
2023-01-31T22:37:53.080Z,5.43
2023-01-31T22:40:58.477Z,4.37
2023-01-31T22:44:01.838Z,5.10
2023-01-31T22:47:05.027Z,4.93
2023-01-31T22:50:12.568Z,5.87
2023-01-31T22:53:17.373Z,7.30
2023-01-31T22:56:23.122Z,5.47
2023-01-31T22:59:26.264Z,4.90
2023-01-31T23:02:29.642Z,4.63
2023-01-31T23:05:34.303Z,5.10
2023-01-31T23:08:37.400Z,4.90
2023-01-31T23:11:40.888Z,7.57
2023-01-31T23:14:43.965Z,4.23
2023-01-31T23:17:47.552Z,6.03
2023-01-31T23:20:52.114Z,4.77
2023-01-31T23:23:55.048Z,3.43
2023-01-31T23:26:58.098Z,3.93
2023-01-31T23:30:01.340Z,3.77
2023-01-31T23:33:04.507Z,3.57
2023-01-31T23:36:09.719Z,5.37
2023-01-31T23:39:12.910Z,4.27
2023-01-31T23:42:16.503Z,3.80
2023-01-31T23:45:19.687Z,3.70
2023-01-31T23:48:22.671Z,3.73
2023-01-31T23:51:28.636Z,4.00
2023-01-31T23:54:31.789Z,4.50
2023-01-31T23:57:35.002Z,3.00
